sensor_id;sensor_type;location;lat;lon;timestamp;P1;P2;P0
30342;PMS5003;17145;49.902;8.680;2023-02-28T00:01:23;6;6;
30342;PMS5003;17145;49.902;8.680;2023-02-28T00:03:53;4;4;
30342;PMS5003;17145;49.902;8.680;2023-02-28T00:06:21;4;3;
30342;PMS5003;17145;49.902;8.680;2023-02-28T00:08:49;6;4;
30342;PMS5003;17145;49.902;8.680;2023-02-28T00:11:18;3;3;
30342;PMS5003;17145;49.902;8.680;2023-02-28T00:13:46;3;3;
30342;PMS5003;17145;49.902;8.680;2023-02-28T00:16:15;3;3;
30342;PMS5003;17145;49.902;8.680;2023-02-28T00:18:44;4;4;
30342;PMS5003;17145;49.902;8.680;2023-02-28T00:21:12;6;4;
30342;PMS5003;17145;49.902;8.680;2023-02-28T00:23:41;4;4;
30342;PMS5003;17145;49.902;8.680;2023-02-28T00:26:09;3;3;
30342;PMS5003;17145;49.902;8.680;2023-02-28T00:28:37;4;4;
30342;PMS5003;17145;49.902;8.680;2023-02-28T00:31:06;6;3;
30342;PMS5003;17145;49.902;8.680;2023-02-28T00:33:33;7;7;
30342;PMS5003;17145;49.902;8.680;2023-02-28T00:36:04;7;7;
30342;PMS5003;17145;49.902;8.680;2023-02-28T00:38:33;4;4;
30342;PMS5003;17145;49.902;8.680;2023-02-28T00:41:01;7;7;
30342;PMS5003;17145;49.902;8.680;2023-02-28T00:43:29;8;6;
30342;PMS5003;17145;49.902;8.680;2023-02-28T00:45:57;4;3;
30342;PMS5003;17145;49.902;8.680;2023-02-28T00:48:25;6;4;
30342;PMS5003;17145;49.902;8.680;2023-02-28T00:50:53;6;6;
30342;PMS5003;17145;49.902;8.680;2023-02-28T00:53:21;4;3;
30342;PMS5003;17145;49.902;8.680;2023-02-28T00:55:50;6;4;
30342;PMS5003;17145;49.902;8.680;2023-02-28T00:58:18;6;6;
30342;PMS5003;17145;49.902;8.680;2023-02-28T01:00:46;6;4;
30342;PMS5003;17145;49.902;8.680;2023-02-28T01:03:13;8;6;
30342;PMS5003;17145;49.902;8.680;2023-02-28T01:05:41;11;8;
30342;PMS5003;17145;49.902;8.680;2023-02-28T01:08:09;8;6;
30342;PMS5003;17145;49.902;8.680;2023-02-28T01:10:37;7;7;
30342;PMS5003;17145;49.902;8.680;2023-02-28T01:13:06;9;9;
30342;PMS5003;17145;49.902;8.680;2023-02-28T01:15:34;8;7;
30342;PMS5003;17145;49.902;8.680;2023-02-28T01:18:01;8;8;
30342;PMS5003;17145;49.902;8.680;2023-02-28T01:20:31;4;4;
30342;PMS5003;17145;49.902;8.680;2023-02-28T01:22:59;7;7;
30342;PMS5003;17145;49.902;8.680;2023-02-28T01:25:26;3;3;
30342;PMS5003;17145;49.902;8.680;2023-02-28T01:27:54;3;3;
30342;PMS5003;17145;49.902;8.680;2023-02-28T01:30:21;5;5;
30342;PMS5003;17145;49.902;8.680;2023-02-28T01:32:49;6;5;
30342;PMS5003;17145;49.902;8.680;2023-02-28T01:35:17;8;7;
30342;PMS5003;17145;49.902;8.680;2023-02-28T01:37:45;11;9;
30342;PMS5003;17145;49.902;8.680;2023-02-28T01:40:13;7;7;
30342;PMS5003;17145;49.902;8.680;2023-02-28T01:42:41;8;7;
30342;PMS5003;17145;49.902;8.680;2023-02-28T01:45:18;14;12;
30342;PMS5003;17145;49.902;8.680;2023-02-28T01:47:49;9;7;
30342;PMS5003;17145;49.902;8.680;2023-02-28T01:50:20;4;4;
30342;PMS5003;17145;49.902;8.680;2023-02-28T01:52:50;6;6;
30342;PMS5003;17145;49.902;8.680;2023-02-28T01:55:23;4;4;
30342;PMS5003;17145;49.902;8.680;2023-02-28T01:57:53;4;4;
30342;PMS5003;17145;49.902;8.680;2023-02-28T02:00:25;4;4;
30342;PMS5003;17145;49.902;8.680;2023-02-28T02:02:57;8;4;
30342;PMS5003;17145;49.902;8.680;2023-02-28T02:05:28;3;3;
30342;PMS5003;17145;49.902;8.680;2023-02-28T02:07:58;4;4;
30342;PMS5003;17145;49.902;8.680;2023-02-28T02:10:32;7;6;
30342;PMS5003;17145;49.902;8.680;2023-02-28T02:13:11;3;3;
30342;PMS5003;17145;49.902;8.680;2023-02-28T02:15:48;4;3;
30342;PMS5003;17145;49.902;8.680;2023-02-28T02:18:26;6;4;
30342;PMS5003;17145;49.902;8.680;2023-02-28T02:21:05;4;4;
30342;PMS5003;17145;49.902;8.680;2023-02-28T02:23:59;4;4;
30342;PMS5003;17145;49.902;8.680;2023-02-28T02:26:49;3;3;
30342;PMS5003;17145;49.902;8.680;2023-02-28T02:29:33;3;3;
30342;PMS5003;17145;49.902;8.680;2023-02-28T02:35:01;2;2;
30342;PMS5003;17145;49.902;8.680;2023-02-28T02:37:40;4;3;
30342;PMS5003;17145;49.902;8.680;2023-02-28T02:40:14;3;3;
30342;PMS5003;17145;49.902;8.680;2023-02-28T02:42:46;2;2;
30342;PMS5003;17145;49.902;8.680;2023-02-28T02:45:19;3;3;
30342;PMS5003;17145;49.902;8.680;2023-02-28T02:47:53;2;2;
30342;PMS5003;17145;49.902;8.680;2023-02-28T02:50:24;4;4;
30342;PMS5003;17145;49.902;8.680;2023-02-28T02:52:59;3;2;
30342;PMS5003;17145;49.902;8.680;2023-02-28T02:55:30;3;2;
30342;PMS5003;17145;49.902;8.680;2023-02-28T02:58:01;3;2;
30342;PMS5003;17145;49.902;8.680;2023-02-28T03:00:34;2;2;
30342;PMS5003;17145;49.902;8.680;2023-02-28T03:03:06;1;1;
30342;PMS5003;17145;49.902;8.680;2023-02-28T03:05:39;3;3;
30342;PMS5003;17145;49.902;8.680;2023-02-28T03:08:12;4;4;
30342;PMS5003;17145;49.902;8.680;2023-02-28T03:10:41;9;9;
30342;PMS5003;17145;49.902;8.680;2023-02-28T03:13:13;2;2;
30342;PMS5003;17145;49.902;8.680;2023-02-28T03:15:55;2;2;
30342;PMS5003;17145;49.902;8.680;2023-02-28T03:18:32;2;2;
30342;PMS5003;17145;49.902;8.680;2023-02-28T03:21:10;2;2;
30342;PMS5003;17145;49.902;8.680;2023-02-28T03:23:48;4;4;
30342;PMS5003;17145;49.902;8.680;2023-02-28T03:26:24;6;6;
30342;PMS5003;17145;49.902;8.680;2023-02-28T03:28:55;2;2;
30342;PMS5003;17145;49.902;8.680;2023-02-28T03:31:30;3;3;
30342;PMS5003;17145;49.902;8.680;2023-02-28T03:34:04;4;2;
30342;PMS5003;17145;49.902;8.680;2023-02-28T03:36:38;1;1;
30342;PMS5003;17145;49.902;8.680;2023-02-28T03:39:09;2;2;
30342;PMS5003;17145;49.902;8.680;2023-02-28T03:41:42;1;1;
30342;PMS5003;17145;49.902;8.680;2023-02-28T03:44:13;26;26;
30342;PMS5003;17145;49.902;8.680;2023-02-28T03:46:46;2;2;
30342;PMS5003;17145;49.902;8.680;2023-02-28T03:52:00;1;1;
30342;PMS5003;17145;49.902;8.680;2023-02-28T03:54:34;1;1;
30342;PMS5003;17145;49.902;8.680;2023-02-28T03:57:10;1;1;
30342;PMS5003;17145;49.902;8.680;2023-02-28T03:59:45;1;1;
30342;PMS5003;17145;49.902;8.680;2023-02-28T04:02:16;2;2;
30342;PMS5003;17145;49.902;8.680;2023-02-28T04:04:46;3;2;
30342;PMS5003;17145;49.902;8.680;2023-02-28T04:07:15;2;2;
30342;PMS5003;17145;49.902;8.680;2023-02-28T04:09:42;1;1;
30342;PMS5003;17145;49.902;8.680;2023-02-28T04:12:11;1;1;
30342;PMS5003;17145;49.902;8.680;2023-02-28T04:14:39;1;1;
30342;PMS5003;17145;49.902;8.680;2023-02-28T04:17:08;1;1;
30342;PMS5003;17145;49.902;8.680;2023-02-28T04:19:35;1;1;
30342;PMS5003;17145;49.902;8.680;2023-02-28T04:22:03;2;1;
30342;PMS5003;17145;49.902;8.680;2023-02-28T04:24:31;2;2;
30342;PMS5003;17145;49.902;8.680;2023-02-28T04:26:59;2;2;
30342;PMS5003;17145;49.902;8.680;2023-02-28T04:29:29;3;3;
30342;PMS5003;17145;49.902;8.680;2023-02-28T04:31:59;1;1;
30342;PMS5003;17145;49.902;8.680;2023-02-28T04:34:28;4;2;
30342;PMS5003;17145;49.902;8.680;2023-02-28T04:36:57;3;2;
30342;PMS5003;17145;49.902;8.680;2023-02-28T04:39:24;3;3;
30342;PMS5003;17145;49.902;8.680;2023-02-28T04:41:52;3;3;
30342;PMS5003;17145;49.902;8.680;2023-02-28T04:44:20;6;6;
30342;PMS5003;17145;49.902;8.680;2023-02-28T04:46:49;3;3;
30342;PMS5003;17145;49.902;8.680;2023-02-28T04:49:18;7;6;
30342;PMS5003;17145;49.902;8.680;2023-02-28T04:51:47;6;6;
30342;PMS5003;17145;49.902;8.680;2023-02-28T04:54:15;7;6;
30342;PMS5003;17145;49.902;8.680;2023-02-28T04:56:42;5;5;
30342;PMS5003;17145;49.902;8.680;2023-02-28T04:59:10;8;6;
30342;PMS5003;17145;49.902;8.680;2023-02-28T05:01:38;6;6;
30342;PMS5003;17145;49.902;8.680;2023-02-28T05:04:08;5;5;
30342;PMS5003;17145;49.902;8.680;2023-02-28T05:06:35;6;5;
30342;PMS5003;17145;49.902;8.680;2023-02-28T05:09:03;5;5;
30342;PMS5003;17145;49.902;8.680;2023-02-28T05:11:32;5;5;
30342;PMS5003;17145;49.902;8.680;2023-02-28T05:14:02;6;5;
30342;PMS5003;17145;49.902;8.680;2023-02-28T05:16:34;6;5;
30342;PMS5003;17145;49.902;8.680;2023-02-28T05:19:04;5;5;
30342;PMS5003;17145;49.902;8.680;2023-02-28T05:21:32;6;6;
30342;PMS5003;17145;49.902;8.680;2023-02-28T05:24:03;7;6;
30342;PMS5003;17145;49.902;8.680;2023-02-28T05:26:34;6;5;
30342;PMS5003;17145;49.902;8.680;2023-02-28T05:29:02;6;5;
30342;PMS5003;17145;49.902;8.680;2023-02-28T05:31:30;5;5;
30342;PMS5003;17145;49.902;8.680;2023-02-28T05:33:58;7;7;
30342;PMS5003;17145;49.902;8.680;2023-02-28T05:36:27;7;6;
30342;PMS5003;17145;49.902;8.680;2023-02-28T05:38:56;7;7;
30342;PMS5003;17145;49.902;8.680;2023-02-28T05:41:24;5;3;
30342;PMS5003;17145;49.902;8.680;2023-02-28T05:43:52;3;3;
30342;PMS5003;17145;49.902;8.680;2023-02-28T05:46:21;5;5;
30342;PMS5003;17145;49.902;8.680;2023-02-28T05:48:49;3;3;
30342;PMS5003;17145;49.902;8.680;2023-02-28T05:51:19;3;3;
30342;PMS5003;17145;49.902;8.680;2023-02-28T05:53:47;3;3;
30342;PMS5003;17145;49.902;8.680;2023-02-28T05:56:15;2;2;
30342;PMS5003;17145;49.902;8.680;2023-02-28T05:58:45;3;2;
30342;PMS5003;17145;49.902;8.680;2023-02-28T06:03:52;3;3;
30342;PMS5003;17145;49.902;8.680;2023-02-28T06:06:20;2;2;
30342;PMS5003;17145;49.902;8.680;2023-02-28T06:08:48;2;2;
30342;PMS5003;17145;49.902;8.680;2023-02-28T06:11:16;3;3;
30342;PMS5003;17145;49.902;8.680;2023-02-28T06:13:45;3;3;
30342;PMS5003;17145;49.902;8.680;2023-02-28T06:16:14;3;3;
30342;PMS5003;17145;49.902;8.680;2023-02-28T06:18:42;3;3;
30342;PMS5003;17145;49.902;8.680;2023-02-28T06:21:10;3;3;
30342;PMS5003;17145;49.902;8.680;2023-02-28T06:26:11;3;3;
30342;PMS5003;17145;49.902;8.680;2023-02-28T06:28:39;2;2;
30342;PMS5003;17145;49.902;8.680;2023-02-28T06:31:07;5;3;
30342;PMS5003;17145;49.902;8.680;2023-02-28T06:33:37;2;2;
30342;PMS5003;17145;49.902;8.680;2023-02-28T06:36:06;5;3;
30342;PMS5003;17145;49.902;8.680;2023-02-28T06:38:36;3;3;
30342;PMS5003;17145;49.902;8.680;2023-02-28T06:41:04;3;3;
30342;PMS5003;17145;49.902;8.680;2023-02-28T06:43:33;3;3;
30342;PMS5003;17145;49.902;8.680;2023-02-28T06:46:04;3;2;
30342;PMS5003;17145;49.902;8.680;2023-02-28T06:48:32;6;3;
30342;PMS5003;17145;49.902;8.680;2023-02-28T06:51:04;3;3;
30342;PMS5003;17145;49.902;8.680;2023-02-28T06:53:33;5;3;
30342;PMS5003;17145;49.902;8.680;2023-02-28T06:56:03;3;3;
30342;PMS5003;17145;49.902;8.680;2023-02-28T06:58:31;3;2;
30342;PMS5003;17145;49.902;8.680;2023-02-28T07:00:58;3;3;
30342;PMS5003;17145;49.902;8.680;2023-02-28T07:03:26;2;2;
30342;PMS5003;17145;49.902;8.680;2023-02-28T07:05:54;3;2;
30342;PMS5003;17145;49.902;8.680;2023-02-28T07:08:22;5;3;
30342;PMS5003;17145;49.902;8.680;2023-02-28T07:10:52;3;3;
30342;PMS5003;17145;49.902;8.680;2023-02-28T07:13:20;2;2;
30342;PMS5003;17145;49.902;8.680;2023-02-28T07:15:54;5;5;
30342;PMS5003;17145;49.902;8.680;2023-02-28T07:18:24;3;3;
30342;PMS5003;17145;49.902;8.680;2023-02-28T07:20:51;6;6;
30342;PMS5003;17145;49.902;8.680;2023-02-28T07:23:19;9;9;
30342;PMS5003;17145;49.902;8.680;2023-02-28T07:25:48;10;10;
30342;PMS5003;17145;49.902;8.680;2023-02-28T07:28:17;19;19;
30342;PMS5003;17145;49.902;8.680;2023-02-28T07:30:45;3;3;
30342;PMS5003;17145;49.902;8.680;2023-02-28T07:33:13;2;2;
30342;PMS5003;17145;49.902;8.680;2023-02-28T07:35:41;3;3;
30342;PMS5003;17145;49.902;8.680;2023-02-28T07:38:09;2;2;
30342;PMS5003;17145;49.902;8.680;2023-02-28T07:40:36;2;2;
30342;PMS5003;17145;49.902;8.680;2023-02-28T07:43:04;3;3;
30342;PMS5003;17145;49.902;8.680;2023-02-28T07:45:32;5;5;
30342;PMS5003;17145;49.902;8.680;2023-02-28T07:48:00;2;2;
30342;PMS5003;17145;49.902;8.680;2023-02-28T07:50:28;2;2;
30342;PMS5003;17145;49.902;8.680;2023-02-28T07:52:56;4;4;
30342;PMS5003;17145;49.902;8.680;2023-02-28T07:55:24;4;4;
30342;PMS5003;17145;49.902;8.680;2023-02-28T07:57:52;3;2;
30342;PMS5003;17145;49.902;8.680;2023-02-28T08:00:19;5;2;
30342;PMS5003;17145;49.902;8.680;2023-02-28T08:02:47;5;5;
30342;PMS5003;17145;49.902;8.680;2023-02-28T08:05:15;5;4;
30342;PMS5003;17145;49.902;8.680;2023-02-28T08:07:42;4;4;
30342;PMS5003;17145;49.902;8.680;2023-02-28T08:10:10;5;4;
30342;PMS5003;17145;49.902;8.680;2023-02-28T08:12:38;5;4;
30342;PMS5003;17145;49.902;8.680;2023-02-28T08:15:07;4;4;
30342;PMS5003;17145;49.902;8.680;2023-02-28T08:17:35;5;5;
30342;PMS5003;17145;49.902;8.680;2023-02-28T08:20:03;4;4;
30342;PMS5003;17145;49.902;8.680;2023-02-28T08:22:31;4;4;
30342;PMS5003;17145;49.902;8.680;2023-02-28T08:24:58;5;5;
30342;PMS5003;17145;49.902;8.680;2023-02-28T08:27:26;4;4;
30342;PMS5003;17145;49.902;8.680;2023-02-28T08:29:53;5;5;
30342;PMS5003;17145;49.902;8.680;2023-02-28T08:32:21;2;2;
30342;PMS5003;17145;49.902;8.680;2023-02-28T08:34:48;4;4;
30342;PMS5003;17145;49.902;8.680;2023-02-28T08:37:15;4;4;
30342;PMS5003;17145;49.902;8.680;2023-02-28T08:39:43;5;4;
30342;PMS5003;17145;49.902;8.680;2023-02-28T08:42:10;5;4;
30342;PMS5003;17145;49.902;8.680;2023-02-28T08:44:38;4;4;
30342;PMS5003;17145;49.902;8.680;2023-02-28T08:47:05;4;4;
30342;PMS5003;17145;49.902;8.680;2023-02-28T08:49:33;6;6;
30342;PMS5003;17145;49.902;8.680;2023-02-28T08:52:00;4;4;
30342;PMS5003;17145;49.902;8.680;2023-02-28T08:54:28;6;5;
30342;PMS5003;17145;49.902;8.680;2023-02-28T08:56:55;5;5;
30342;PMS5003;17145;49.902;8.680;2023-02-28T08:59:22;6;5;
30342;PMS5003;17145;49.902;8.680;2023-02-28T09:01:50;5;5;
30342;PMS5003;17145;49.902;8.680;2023-02-28T09:04:17;5;5;
30342;PMS5003;17145;49.902;8.680;2023-02-28T09:06:44;6;5;
30342;PMS5003;17145;49.902;8.680;2023-02-28T09:09:12;8;8;
30342;PMS5003;17145;49.902;8.680;2023-02-28T09:11:39;6;6;
30342;PMS5003;17145;49.902;8.680;2023-02-28T09:14:07;4;4;
30342;PMS5003;17145;49.902;8.680;2023-02-28T09:16:35;5;5;
30342;PMS5003;17145;49.902;8.680;2023-02-28T09:19:02;5;5;
30342;PMS5003;17145;49.902;8.680;2023-02-28T09:21:30;9;6;
30342;PMS5003;17145;49.902;8.680;2023-02-28T09:23:57;4;4;
30342;PMS5003;17145;49.902;8.680;2023-02-28T09:26:26;5;5;
30342;PMS5003;17145;49.902;8.680;2023-02-28T09:28:54;8;6;
30342;PMS5003;17145;49.902;8.680;2023-02-28T09:31:23;6;6;
30342;PMS5003;17145;49.902;8.680;2023-02-28T09:33:54;6;5;
30342;PMS5003;17145;49.902;8.680;2023-02-28T09:36:24;5;5;
30342;PMS5003;17145;49.902;8.680;2023-02-28T09:38:52;8;6;
30342;PMS5003;17145;49.902;8.680;2023-02-28T09:41:21;4;4;
30342;PMS5003;17145;49.902;8.680;2023-02-28T09:43:51;5;5;
30342;PMS5003;17145;49.902;8.680;2023-02-28T09:46:27;5;5;
30342;PMS5003;17145;49.902;8.680;2023-02-28T09:49:00;5;5;
30342;PMS5003;17145;49.902;8.680;2023-02-28T09:51:34;6;6;
30342;PMS5003;17145;49.902;8.680;2023-02-28T09:54:10;6;6;
30342;PMS5003;17145;49.902;8.680;2023-02-28T09:56:42;6;6;
30342;PMS5003;17145;49.902;8.680;2023-02-28T09:59:13;9;8;
30342;PMS5003;17145;49.902;8.680;2023-02-28T10:01:50;6;5;
30342;PMS5003;17145;49.902;8.680;2023-02-28T10:04:29;6;6;
30342;PMS5003;17145;49.902;8.680;2023-02-28T10:07:11;6;6;
30342;PMS5003;17145;49.902;8.680;2023-02-28T10:09:50;8;8;
30342;PMS5003;17145;49.902;8.680;2023-02-28T10:12:21;5;5;
30342;PMS5003;17145;49.902;8.680;2023-02-28T10:14:51;9;8;
30342;PMS5003;17145;49.902;8.680;2023-02-28T10:17:24;8;8;
30342;PMS5003;17145;49.902;8.680;2023-02-28T10:20:00;6;6;
30342;PMS5003;17145;49.902;8.680;2023-02-28T10:22:33;6;5;
30342;PMS5003;17145;49.902;8.680;2023-02-28T10:25:05;6;6;
30342;PMS5003;17145;49.902;8.680;2023-02-28T10:27:44;9;8;
30342;PMS5003;17145;49.902;8.680;2023-02-28T10:30:12;6;6;
30342;PMS5003;17145;49.902;8.680;2023-02-28T10:32:40;6;6;
30342;PMS5003;17145;49.902;8.680;2023-02-28T10:35:14;6;5;
30342;PMS5003;17145;49.902;8.680;2023-02-28T10:37:44;6;5;
30342;PMS5003;17145;49.902;8.680;2023-02-28T10:42:54;8;8;
30342;PMS5003;17145;49.902;8.680;2023-02-28T10:45:23;6;6;
30342;PMS5003;17145;49.902;8.680;2023-02-28T10:47:53;8;6;
30342;PMS5003;17145;49.902;8.680;2023-02-28T10:50:27;5;5;
30342;PMS5003;17145;49.902;8.680;2023-02-28T10:55:39;8;8;
30342;PMS5003;17145;49.902;8.680;2023-02-28T11:00:47;8;8;
30342;PMS5003;17145;49.902;8.680;2023-02-28T11:05:51;10;9;
30342;PMS5003;17145;49.902;8.680;2023-02-28T11:08:19;8;8;
30342;PMS5003;17145;49.902;8.680;2023-02-28T11:10:48;9;9;
30342;PMS5003;17145;49.902;8.680;2023-02-28T11:13:21;8;8;
30342;PMS5003;17145;49.902;8.680;2023-02-28T11:15:55;5;5;
30342;PMS5003;17145;49.902;8.680;2023-02-28T11:18:25;6;6;
30342;PMS5003;17145;49.902;8.680;2023-02-28T11:20:57;6;6;
30342;PMS5003;17145;49.902;8.680;2023-02-28T11:23:29;9;8;
30342;PMS5003;17145;49.902;8.680;2023-02-28T11:26:02;8;8;
30342;PMS5003;17145;49.902;8.680;2023-02-28T11:28:31;11;9;
30342;PMS5003;17145;49.902;8.680;2023-02-28T11:31:00;11;9;
30342;PMS5003;17145;49.902;8.680;2023-02-28T11:33:31;12;11;
30342;PMS5003;17145;49.902;8.680;2023-02-28T11:36:08;8;8;
30342;PMS5003;17145;49.902;8.680;2023-02-28T11:38:38;12;9;
30342;PMS5003;17145;49.902;8.680;2023-02-28T11:41:10;11;9;
30342;PMS5003;17145;49.902;8.680;2023-02-28T11:43:53;9;9;
30342;PMS5003;17145;49.902;8.680;2023-02-28T11:46:37;12;12;
30342;PMS5003;17145;49.902;8.680;2023-02-28T11:49:15;13;12;
30342;PMS5003;17145;49.902;8.680;2023-02-28T11:51:54;11;9;
30342;PMS5003;17145;49.902;8.680;2023-02-28T11:54:29;13;12;
30342;PMS5003;17145;49.902;8.680;2023-02-28T11:57:19;12;11;
30342;PMS5003;17145;49.902;8.680;2023-02-28T11:59:57;13;9;
30342;PMS5003;17145;49.902;8.680;2023-02-28T12:02:29;11;9;
30342;PMS5003;17145;49.902;8.680;2023-02-28T12:05:13;15;13;
30342;PMS5003;17145;49.902;8.680;2023-02-28T12:07:54;13;12;
30342;PMS5003;17145;49.902;8.680;2023-02-28T12:10:32;15;12;
30342;PMS5003;17145;49.902;8.680;2023-02-28T12:13:10;11;11;
30342;PMS5003;17145;49.902;8.680;2023-02-28T12:15:57;13;12;
30342;PMS5003;17145;49.902;8.680;2023-02-28T12:18:40;9;9;
30342;PMS5003;17145;49.902;8.680;2023-02-28T12:21:19;12;11;
30342;PMS5003;17145;49.902;8.680;2023-02-28T12:24:00;11;11;
30342;PMS5003;17145;49.902;8.680;2023-02-28T12:26:37;12;9;
30342;PMS5003;17145;49.902;8.680;2023-02-28T12:29:10;11;9;
30342;PMS5003;17145;49.902;8.680;2023-02-28T12:31:45;9;9;
30342;PMS5003;17145;49.902;8.680;2023-02-28T12:34:18;13;11;
30342;PMS5003;17145;49.902;8.680;2023-02-28T12:36:49;13;12;
30342;PMS5003;17145;49.902;8.680;2023-02-28T12:39:22;14;11;
30342;PMS5003;17145;49.902;8.680;2023-02-28T12:41:54;11;9;
30342;PMS5003;17145;49.902;8.680;2023-02-28T12:44:27;12;12;
30342;PMS5003;17145;49.902;8.680;2023-02-28T12:47:00;12;11;
30342;PMS5003;17145;49.902;8.680;2023-02-28T12:49:31;12;12;
30342;PMS5003;17145;49.902;8.680;2023-02-28T12:52:03;13;12;
30342;PMS5003;17145;49.902;8.680;2023-02-28T12:54:35;13;9;
30342;PMS5003;17145;49.902;8.680;2023-02-28T12:57:09;11;11;
30342;PMS5003;17145;49.902;8.680;2023-02-28T12:59:45;8;8;
30342;PMS5003;17145;49.902;8.680;2023-02-28T13:07:55;9;8;
30342;PMS5003;17145;49.902;8.680;2023-02-28T13:10:40;12;11;
30342;PMS5003;17145;49.902;8.680;2023-02-28T13:13:15;9;9;
30342;PMS5003;17145;49.902;8.680;2023-02-28T13:18:27;9;9;
30342;PMS5003;17145;49.902;8.680;2023-02-28T13:20:58;8;8;
30342;PMS5003;17145;49.902;8.680;2023-02-28T13:26:05;9;6;
30342;PMS5003;17145;49.902;8.680;2023-02-28T13:31:18;6;6;
30342;PMS5003;17145;49.902;8.680;2023-02-28T13:36:32;9;9;
30342;PMS5003;17145;49.902;8.680;2023-02-28T13:39:00;9;8;
30342;PMS5003;17145;49.902;8.680;2023-02-28T13:44:08;9;9;
30342;PMS5003;17145;49.902;8.680;2023-02-28T13:49:19;11;8;
30342;PMS5003;17145;49.902;8.680;2023-02-28T13:51:52;6;6;
30342;PMS5003;17145;49.902;8.680;2023-02-28T13:54:24;8;8;
30342;PMS5003;17145;49.902;8.680;2023-02-28T13:57:04;9;9;
30342;PMS5003;17145;49.902;8.680;2023-02-28T13:59:45;8;8;
30342;PMS5003;17145;49.902;8.680;2023-02-28T14:02:27;9;8;
30342;PMS5003;17145;49.902;8.680;2023-02-28T14:05:05;9;8;
30342;PMS5003;17145;49.902;8.680;2023-02-28T14:07:38;9;9;
30342;PMS5003;17145;49.902;8.680;2023-02-28T14:10:19;9;8;
30342;PMS5003;17145;49.902;8.680;2023-02-28T14:12:52;8;8;
30342;PMS5003;17145;49.902;8.680;2023-02-28T14:15:28;8;8;
30342;PMS5003;17145;49.902;8.680;2023-02-28T14:20:47;9;8;
30342;PMS5003;17145;49.902;8.680;2023-02-28T14:23:20;9;8;
30342;PMS5003;17145;49.902;8.680;2023-02-28T14:25:58;8;8;
30342;PMS5003;17145;49.902;8.680;2023-02-28T14:28:35;8;8;
30342;PMS5003;17145;49.902;8.680;2023-02-28T14:31:13;8;8;
30342;PMS5003;17145;49.902;8.680;2023-02-28T14:33:48;11;9;
30342;PMS5003;17145;49.902;8.680;2023-02-28T14:36:31;11;11;
30342;PMS5003;17145;49.902;8.680;2023-02-28T14:39:04;25;13;
30342;PMS5003;17145;49.902;8.680;2023-02-28T14:41:35;11;9;
30342;PMS5003;17145;49.902;8.680;2023-02-28T14:44:12;11;9;
30342;PMS5003;17145;49.902;8.680;2023-02-28T14:46:42;11;11;
30342;PMS5003;17145;49.902;8.680;2023-02-28T14:49:13;15;13;
30342;PMS5003;17145;49.902;8.680;2023-02-28T14:51:44;16;12;
30342;PMS5003;17145;49.902;8.680;2023-02-28T14:54:14;11;11;
30342;PMS5003;17145;49.902;8.680;2023-02-28T14:56:48;9;9;
30342;PMS5003;17145;49.902;8.680;2023-02-28T14:59:23;12;11;
30342;PMS5003;17145;49.902;8.680;2023-02-28T15:04:36;12;11;
30342;PMS5003;17145;49.902;8.680;2023-02-28T15:07:08;11;9;
30342;PMS5003;17145;49.902;8.680;2023-02-28T15:09:36;12;11;
30342;PMS5003;17145;49.902;8.680;2023-02-28T15:12:04;8;8;
30342;PMS5003;17145;49.902;8.680;2023-02-28T15:14:32;9;9;
30342;PMS5003;17145;49.902;8.680;2023-02-28T15:17:05;9;8;
30342;PMS5003;17145;49.902;8.680;2023-02-28T15:19:41;8;8;
30342;PMS5003;17145;49.902;8.680;2023-02-28T15:22:13;9;9;
30342;PMS5003;17145;49.902;8.680;2023-02-28T15:24:46;9;8;
30342;PMS5003;17145;49.902;8.680;2023-02-28T15:27:20;12;11;
30342;PMS5003;17145;49.902;8.680;2023-02-28T15:29:51;9;8;
30342;PMS5003;17145;49.902;8.680;2023-02-28T15:32:25;8;8;
30342;PMS5003;17145;49.902;8.680;2023-02-28T15:34:55;9;8;
30342;PMS5003;17145;49.902;8.680;2023-02-28T15:37:28;8;8;
30342;PMS5003;17145;49.902;8.680;2023-02-28T15:40:07;9;8;
30342;PMS5003;17145;49.902;8.680;2023-02-28T15:42:39;8;6;
30342;PMS5003;17145;49.902;8.680;2023-02-28T15:47:45;6;5;
30342;PMS5003;17145;49.902;8.680;2023-02-28T15:50:14;6;5;
30342;PMS5003;17145;49.902;8.680;2023-02-28T15:52:42;8;6;
30342;PMS5003;17145;49.902;8.680;2023-02-28T15:55:15;5;5;
30342;PMS5003;17145;49.902;8.680;2023-02-28T15:57:45;6;6;
30342;PMS5003;17145;49.902;8.680;2023-02-28T16:00:18;4;4;
30342;PMS5003;17145;49.902;8.680;2023-02-28T16:02:48;5;4;
30342;PMS5003;17145;49.902;8.680;2023-02-28T16:05:19;4;4;
30342;PMS5003;17145;49.902;8.680;2023-02-28T16:07:49;4;4;
30342;PMS5003;17145;49.902;8.680;2023-02-28T16:10:16;5;5;
30342;PMS5003;17145;49.902;8.680;2023-02-28T16:12:44;5;5;
30342;PMS5003;17145;49.902;8.680;2023-02-28T16:17:46;5;4;
30342;PMS5003;17145;49.902;8.680;2023-02-28T16:20:14;2;2;
30342;PMS5003;17145;49.902;8.680;2023-02-28T16:22:43;2;2;
30342;PMS5003;17145;49.902;8.680;2023-02-28T16:25:12;2;2;
30342;PMS5003;17145;49.902;8.680;2023-02-28T16:27:40;2;2;
30342;PMS5003;17145;49.902;8.680;2023-02-28T16:30:14;2;2;
30342;PMS5003;17145;49.902;8.680;2023-02-28T16:32:46;4;2;
30342;PMS5003;17145;49.902;8.680;2023-02-28T16:35:14;2;2;
30342;PMS5003;17145;49.902;8.680;2023-02-28T16:37:42;4;2;
30342;PMS5003;17145;49.902;8.680;2023-02-28T16:40:13;2;2;
30342;PMS5003;17145;49.902;8.680;2023-02-28T16:42:41;4;2;
30342;PMS5003;17145;49.902;8.680;2023-02-28T16:45:14;4;2;
30342;PMS5003;17145;49.902;8.680;2023-02-28T16:47:44;2;2;
30342;PMS5003;17145;49.902;8.680;2023-02-28T16:50:13;2;2;
30342;PMS5003;17145;49.902;8.680;2023-02-28T16:52:43;5;4;
30342;PMS5003;17145;49.902;8.680;2023-02-28T16:55:10;4;4;
30342;PMS5003;17145;49.902;8.680;2023-02-28T16:57:39;4;4;
30342;PMS5003;17145;49.902;8.680;2023-02-28T17:00:07;4;4;
30342;PMS5003;17145;49.902;8.680;2023-02-28T17:02:39;4;4;
30342;PMS5003;17145;49.902;8.680;2023-02-28T17:05:08;4;4;
30342;PMS5003;17145;49.902;8.680;2023-02-28T17:07:37;4;4;
30342;PMS5003;17145;49.902;8.680;2023-02-28T17:10:09;5;5;
30342;PMS5003;17145;49.902;8.680;2023-02-28T17:12:41;5;5;
30342;PMS5003;17145;49.902;8.680;2023-02-28T17:15:09;5;4;
30342;PMS5003;17145;49.902;8.680;2023-02-28T17:17:38;7;5;
30342;PMS5003;17145;49.902;8.680;2023-02-28T17:20:07;5;4;
30342;PMS5003;17145;49.902;8.680;2023-02-28T17:22:37;5;5;
30342;PMS5003;17145;49.902;8.680;2023-02-28T17:25:05;4;4;
30342;PMS5003;17145;49.902;8.680;2023-02-28T17:27:35;4;4;
30342;PMS5003;17145;49.902;8.680;2023-02-28T17:30:03;5;5;
30342;PMS5003;17145;49.902;8.680;2023-02-28T17:32:37;4;4;
30342;PMS5003;17145;49.902;8.680;2023-02-28T17:35:05;4;4;
30342;PMS5003;17145;49.902;8.680;2023-02-28T17:37:33;5;5;
30342;PMS5003;17145;49.902;8.680;2023-02-28T17:40:01;5;5;
30342;PMS5003;17145;49.902;8.680;2023-02-28T17:42:28;8;5;
30342;PMS5003;17145;49.902;8.680;2023-02-28T17:44:55;7;7;
30342;PMS5003;17145;49.902;8.680;2023-02-28T17:47:23;5;4;
30342;PMS5003;17145;49.902;8.680;2023-02-28T17:49:51;7;7;
30342;PMS5003;17145;49.902;8.680;2023-02-28T17:52:18;4;4;
30342;PMS5003;17145;49.902;8.680;2023-02-28T17:54:46;5;5;
30342;PMS5003;17145;49.902;8.680;2023-02-28T17:57:13;8;7;
30342;PMS5003;17145;49.902;8.680;2023-02-28T17:59:42;7;7;
30342;PMS5003;17145;49.902;8.680;2023-02-28T18:02:11;7;5;
30342;PMS5003;17145;49.902;8.680;2023-02-28T18:04:40;5;5;
30342;PMS5003;17145;49.902;8.680;2023-02-28T18:07:08;5;5;